< < Back
Terminal Aerodrome Forecast


Current Version              Previous Versions:   1  2  3  4  5  6  7  8  9  

Terminal Aerodrome Forecast

485
FTUS44 KBMX 302339
TAFANB
TAF
KANB 302339Z 3100/3124 23010KT P6SM SCT025 BKN100
     FM310200 23003KT P6SM FEW040 BKN150
     FM311500 24006KT P6SM SCT050 SCT250
     FM311700 23007KT P6SM VCTS BKN050CB=

Latest METAR

100
SAUS70 KWBC 310300 RRG
MTRANB
METAR KANB 310253Z AUTO 00000KT 10SM CLR 24/23 A3004 RMK AO2 SLP161
T02390228 51010 $


USA.gov is the U.S. government's official web portal to all federal, state and local government web resources and services.